Time;durP1;ratioP1;P1;durP2;ratioP2;P2;SDS_P1;SDS_P2;PMS_P1;PMS_P2;Temp;Humidity;BMP_temperature;BMP_pressure;BME280_temperature;BME280_humidity;BME280_pressure;Samples;Min_cycle;Max_cycle;Signal;HPM_P1;HPM_P2
2023/01/03 00:02:05;;;;;;;2.07;1.90;;;10.50;99.90;;;;;;5111170;28;20522;-56
2023/01/03 00:04:32;;;;;;;3.30;2.40;;;10.60;99.90;;;;;;5112966;28;20435;-56
2023/01/03 00:07:01;;;;;;;2.70;1.67;;;10.60;99.90;;;;;;5113122;28;20447;-55
2023/01/03 00:09:28;;;;;;;1.90;1.80;;;10.60;99.90;;;;;;5111038;28;20758;-56
2023/01/03 00:14:43;;;;;;;2.37;1.80;;;10.50;99.90;;;;;;5112778;28;20508;-56
2023/01/03 00:17:12;;;;;;;1.60;1.50;;;10.50;99.90;;;;;;5111212;28;20445;-56
2023/01/03 00:19:42;;;;;;;1.60;1.50;;;10.40;99.90;;;;;;5112325;28;20466;-55
2023/01/03 00:22:12;;;;;;;1.60;1.50;;;10.40;99.90;;;;;;5110235;28;20438;-56
2023/01/03 00:24:39;;;;;;;1.60;1.50;;;10.40;99.90;;;;;;5110411;28;20461;-55
2023/01/03 00:27:07;;;;;;;1.70;1.60;;;10.30;99.90;;;;;;5112665;28;20929;-56
2023/01/03 00:29:34;;;;;;;1.53;1.43;;;10.30;99.90;;;;;;5112499;28;20442;-56
2023/01/03 00:32:02;;;;;;;1.60;1.50;;;10.30;99.90;;;;;;5114207;28;20821;-56
2023/01/03 00:34:29;;;;;;;1.70;1.60;;;10.30;99.90;;;;;;5116533;28;20581;-56
2023/01/03 00:36:56;;;;;;;3.30;1.70;;;10.30;99.90;;;;;;5115599;28;20933;-56
2023/01/03 00:39:25;;;;;;;1.97;1.53;;;10.30;99.90;;;;;;5114667;28;20510;-55
2023/01/03 00:41:53;;;;;;;6.70;1.70;;;10.20;99.90;;;;;;5116054;28;20537;-56
2023/01/03 00:44:20;;;;;;;1.50;1.40;;;10.30;99.90;;;;;;5116195;28;20557;-56
2023/01/03 00:46:47;;;;;;;1.70;1.53;;;10.30;99.90;;;;;;5114484;28;20431;-56
2023/01/03 00:49:15;;;;;;;1.47;1.37;;;10.40;99.90;;;;;;5116341;28;20544;-56
2023/01/03 00:51:43;;;;;;;1.40;1.30;;;10.40;99.90;;;;;;5116118;28;20454;-56
2023/01/03 00:54:11;;;;;;;2.50;1.50;;;10.40;99.90;;;;;;5114434;28;20478;-56
2023/01/03 00:56:42;;;;;;;1.63;1.50;;;10.50;99.90;;;;;;5116427;28;20450;-55
2023/01/03 00:59:10;;;;;;;1.90;1.50;;;10.40;99.90;;;;;;5116413;28;20427;-56
2023/01/03 01:01:39;;;;;;;2.13;1.70;;;10.40;99.90;;;;;;5114104;28;20473;-56
2023/01/03 01:04:09;;;;;;;2.07;1.40;;;10.30;99.90;;;;;;5116090;28;20433;-56
2023/01/03 01:06:39;;;;;;;2.67;2.27;;;10.20;99.90;;;;;;5116219;28;20453;-56
2023/01/03 01:09:10;;;;;;;1.60;1.50;;;10.10;99.90;;;;;;5114162;28;20454;-55
2023/01/03 01:11:37;;;;;;;1.73;1.60;;;10.00;99.90;;;;;;5115707;28;20490;-55
2023/01/03 01:14:18;;;;;;;2.77;1.90;;;10.00;99.90;;;;;;5116068;28;20486;-56
2023/01/03 01:16:46;;;;;;;2.37;1.57;;;10.10;99.90;;;;;;5113550;28;20427;-56
2023/01/03 01:19:14;;;;;;;1.53;1.43;;;10.20;99.90;;;;;;5115645;28;20533;-56
2023/01/03 01:21:43;;;;;;;1.40;1.30;;;10.30;99.90;;;;;;5115060;28;20515;-56
2023/01/03 01:24:10;;;;;;;2.63;1.70;;;10.30;99.90;;;;;;5113437;28;20439;-56
2023/01/03 01:26:38;;;;;;;1.33;1.23;;;10.20;99.90;;;;;;5115092;28;20453;-56
2023/01/03 01:29:06;;;;;;;1.70;1.60;;;10.30;99.90;;;;;;5115735;28;20801;-56
2023/01/03 01:31:33;;;;;;;1.50;1.40;;;10.20;99.90;;;;;;5113607;28;20470;-55
2023/01/03 01:34:00;;;;;;;2.50;1.50;;;10.30;99.90;;;;;;5115594;28;20564;-56
2023/01/03 01:36:30;;;;;;;1.70;1.60;;;10.30;99.90;;;;;;5115338;28;20450;-55
2023/01/03 01:38:59;;;;;;;2.07;1.50;;;10.20;99.90;;;;;;5113721;28;20913;-56
2023/01/03 01:44:46;;;;;;;2.00;1.90;;;10.10;99.90;;;;;;5114179;28;20461;-55
2023/01/03 01:47:17;;;;;;;1.80;1.70;;;10.00;99.90;;;;;;5114329;28;20442;-56
2023/01/03 01:49:45;;;;;;;1.70;1.60;;;10.00;99.90;;;;;;5115354;28;20457;-55
2023/01/03 01:52:15;;;;;;;2.60;1.53;;;9.90;99.90;;;;;;5113164;28;20449;-55
2023/01/03 01:54:42;;;;;;;2.03;1.63;;;10.00;99.90;;;;;;5115028;28;20565;-56
2023/01/03 01:57:15;;;;;;;1.60;1.50;;;9.90;99.90;;;;;;5114815;28;20447;-55
2023/01/03 01:59:42;;;;;;;1.60;1.50;;;9.90;99.90;;;;;;5113034;28;20467;-56
2023/01/03 02:02:12;;;;;;;2.13;1.53;;;9.90;99.90;;;;;;5113797;28;20530;-56
2023/01/03 02:04:40;;;;;;;1.60;1.50;;;9.90;99.90;;;;;;5113721;28;20804;-55
2023/01/03 02:07:07;;;;;;;5.10;1.70;;;10.00;99.90;;;;;;5114488;28;20439;-55
2023/01/03 02:09:35;;;;;;;1.50;1.40;;;10.00;99.90;;;;;;5114691;28;20438;-55
2023/01/03 02:15:07;;;;;;;2.60;1.80;;;9.70;99.90;;;;;;5114663;28;20477;-56
2023/01/03 02:17:45;;;;;;;1.57;1.47;;;9.60;99.90;;;;;;5114511;28;20425;-56
2023/01/03 02:20:31;;;;;;;1.60;1.50;;;9.70;99.90;;;;;;5110092;28;20466;-55
2023/01/03 02:23:21;;;;;;;1.40;1.30;;;9.70;99.90;;;;;;5114288;28;20431;-56
2023/01/03 02:26:21;;;;;;;1.80;1.50;;;9.80;99.90;;;;;;5112258;28;20431;-55
2023/01/03 02:29:17;;;;;;;1.60;1.50;;;9.60;99.90;;;;;;5114599;28;20430;-56
2023/01/03 02:31:54;;;;;;;2.03;1.30;;;9.50;99.90;;;;;;5105962;28;20457;-56
2023/01/03 02:34:31;;;;;;;1.40;1.30;;;9.50;99.90;;;;;;5111879;28;20493;-56
2023/01/03 02:37:13;;;;;;;1.73;1.50;;;9.50;99.90;;;;;;5114399;28;20735;-56
2023/01/03 02:39:47;;;;;;;1.67;1.57;;;9.50;99.90;;;;;;5114180;28;20546;-55
2023/01/03 02:45:11;;;;;;;2.80;1.60;;;9.40;99.90;;;;;;5113896;28;20466;-56
2023/01/03 02:47:45;;;;;;;1.70;1.60;;;9.50;99.90;;;;;;5113609;28;20889;-55
2023/01/03 02:50:14;;;;;;;1.53;1.43;;;9.50;99.90;;;;;;5112969;28;21030;-56
2023/01/03 02:52:44;;;;;;;2.03;1.60;;;9.40;99.90;;;;;;5113368;28;20951;-56
2023/01/03 02:55:16;;;;;;;1.50;1.40;;;9.40;99.90;;;;;;5112519;28;20995;-55
2023/01/03 02:57:47;;;;;;;1.60;1.50;;;9.30;99.90;;;;;;5114139;28;20430;-56
2023/01/03 03:00:17;;;;;;;1.73;1.30;;;9.30;99.90;;;;;;5113950;28;20505;-56
2023/01/03 03:02:50;;;;;;;1.70;1.60;;;9.30;99.90;;;;;;5111507;28;20549;-56
2023/01/03 03:05:23;;;;;;;1.50;1.40;;;9.30;99.90;;;;;;5113587;28;20506;-56
2023/01/03 03:07:50;;;;;;;1.60;1.50;;;9.30;99.90;;;;;;5110176;28;20469;-55
2023/01/03 03:13:13;;;;;;;2.97;1.30;;;9.30;99.90;;;;;;5113836;28;20407;-55
2023/01/03 03:15:48;;;;;;;6.20;2.00;;;9.40;99.90;;;;;;5113355;28;20417;-55
2023/01/03 03:18:19;;;;;;;2.53;1.47;;;9.30;99.90;;;;;;5111865;28;20421;-55
2023/01/03 03:26:26;;;;;;;4.53;1.73;;;9.20;99.90;;;;;;5109649;28;20399;-56
2023/01/03 03:28:56;;;;;;;1.87;1.77;;;9.20;99.90;;;;;;5113211;28;20919;-56
2023/01/03 03:31:30;;;;;;;1.63;1.53;;;9.10;99.90;;;;;;5113493;28;20451;-55
2023/01/03 03:34:06;;;;;;;2.13;1.37;;;9.10;99.90;;;;;;5111654;28;20462;-55
2023/01/03 03:36:39;;;;;;;2.93;1.90;;;9.10;99.90;;;;;;5113098;28;20438;-55
2023/01/03 03:44:59;;;;;;;1.60;1.50;;;9.10;99.90;;;;;;5113681;28;20940;-55
2023/01/03 03:45:00;;;;;;;1.83;1.73;;;8.90;99.90;;;;;;5113068;28;20465;-56
2023/01/03 03:47:35;;;;;;;2.23;1.40;;;8.90;99.90;;;;;;5111624;28;20516;-56
2023/01/03 03:50:10;;;;;;;2.03;1.57;;;8.90;99.90;;;;;;5112679;28;20868;-56
2023/01/03 03:52:39;;;;;;;1.40;1.30;;;8.90;99.90;;;;;;5113699;28;20429;-56
2023/01/03 03:55:10;;;;;;;2.23;1.70;;;8.90;99.90;;;;;;5110838;28;20489;-56
2023/01/03 03:57:43;;;;;;;2.20;1.90;;;8.90;99.90;;;;;;5113250;28;20427;-56
2023/01/03 04:00:15;;;;;;;1.90;1.80;;;8.90;99.90;;;;;;5113022;28;20975;-56
2023/01/03 04:02:45;;;;;;;2.80;1.63;;;8.90;99.90;;;;;;5111315;28;20772;-55
2023/01/03 04:05:19;;;;;;;2.03;1.47;;;8.80;99.90;;;;;;5113799;28;20769;-55
2023/01/03 04:07:46;;;;;;;4.70;1.90;;;8.70;99.90;;;;;;5117248;28;20456;-56
2023/01/03 04:10:18;;;;;;;1.93;1.70;;;8.70;99.90;;;;;;5115182;28;20466;-55
2023/01/03 04:12:46;;;;;;;3.30;2.60;;;8.70;99.90;;;;;;5116956;28;20434;-55
2023/01/03 04:15:14;;;;;;;2.93;1.60;;;8.70;99.90;;;;;;5116914;28;20474;-55
2023/01/03 04:17:42;;;;;;;4.73;2.10;;;8.60;99.90;;;;;;5115057;28;20456;-55
2023/01/03 04:20:10;;;;;;;2.20;2.00;;;8.60;99.90;;;;;;5116996;28;20492;-55
2023/01/03 04:22:39;;;;;;;1.90;1.80;;;8.50;99.90;;;;;;5116756;28;20947;-55
2023/01/03 04:25:07;;;;;;;2.10;1.90;;;8.40;99.90;;;;;;5114715;28;20442;-55
2023/01/03 04:27:34;;;;;;;2.33;1.63;;;8.40;99.90;;;;;;5116827;28;20768;-55
2023/01/03 04:30:01;;;;;;;2.97;2.20;;;8.50;99.90;;;;;;5116618;28;20472;-56
2023/01/03 04:32:28;;;;;;;1.60;1.50;;;8.50;99.90;;;;;;5112611;28;20959;-55
2023/01/03 04:34:55;;;;;;;2.30;2.13;;;8.60;99.90;;;;;;5116830;28;20501;-55
2023/01/03 04:37:22;;;;;;;2.90;2.10;;;8.60;99.90;;;;;;5116774;28;20455;-55
2023/01/03 04:39:51;;;;;;;5.30;3.93;;;8.60;99.90;;;;;;5114195;28;20997;-55
2023/01/03 04:45:03;;;;;;;2.00;1.90;;;8.40;99.90;;;;;;5116224;28;20481;-55
2023/01/03 04:47:31;;;;;;;3.70;2.03;;;8.30;99.90;;;;;;5112285;28;20965;-55
2023/01/03 04:49:58;;;;;;;3.00;1.83;;;8.20;99.90;;;;;;5115248;28;20975;-55
2023/01/03 04:52:25;;;;;;;3.80;1.90;;;8.30;99.90;;;;;;5115799;28;21039;-55
2023/01/03 04:54:53;;;;;;;2.00;1.90;;;8.30;99.90;;;;;;5114259;28;20478;-55
2023/01/03 04:57:20;;;;;;;2.80;2.10;;;8.30;99.90;;;;;;5116494;28;20496;-55
2023/01/03 04:59:47;;;;;;;2.30;2.10;;;8.40;99.90;;;;;;5115775;28;20470;-55
2023/01/03 05:02:15;;;;;;;2.37;2.07;;;8.30;99.90;;;;;;5114076;28;20810;-55
2023/01/03 05:04:42;;;;;;;1.83;1.73;;;8.30;99.90;;;;;;5115898;28;20944;-55
2023/01/03 05:07:09;;;;;;;2.37;2.17;;;8.20;99.90;;;;;;5115711;28;20458;-55
2023/01/03 05:09:36;;;;;;;2.10;1.73;;;8.30;99.90;;;;;;5114155;28;20541;-55
2023/01/03 05:12:05;;;;;;;2.00;1.90;;;8.30;99.90;;;;;;5115820;28;20960;-55
2023/01/03 05:14:32;;;;;;;2.00;1.80;;;8.40;99.90;;;;;;5115625;28;21026;-55
2023/01/03 05:16:59;;;;;;;2.37;1.73;;;8.40;99.90;;;;;;5113515;28;20451;-55
2023/01/03 05:19:26;;;;;;;3.30;2.50;;;8.50;99.90;;;;;;5115081;28;20541;-55
2023/01/03 05:27:24;;;;;;;2.47;1.77;;;8.40;99.90;;;;;;5115134;28;20523;-55
2023/01/03 05:29:54;;;;;;;2.53;1.70;;;8.50;99.90;;;;;;5115706;28;20467;-55
2023/01/03 05:32:22;;;;;;;2.00;1.80;;;8.50;99.90;;;;;;5113597;28;20453;-55
2023/01/03 05:34:49;;;;;;;1.93;1.83;;;8.50;99.90;;;;;;5115615;28;20511;-54
2023/01/03 05:37:17;;;;;;;2.27;2.07;;;8.50;99.90;;;;;;5114908;28;20541;-54
2023/01/03 05:39:44;;;;;;;2.80;1.97;;;8.50;99.90;;;;;;5112996;28;20500;-55
2023/01/03 05:42:11;;;;;;;2.90;2.10;;;8.50;99.90;;;;;;5115306;28;20462;-55
2023/01/03 05:44:39;;;;;;;5.33;2.00;;;8.50;99.90;;;;;;5114910;28;20478;-55
2023/01/03 05:47:08;;;;;;;2.30;2.10;;;8.60;99.90;;;;;;5113209;28;20525;-55
2023/01/03 05:49:35;;;;;;;2.40;2.20;;;8.60;99.90;;;;;;5115332;28;20554;-54
2023/01/03 05:52:03;;;;;;;2.60;1.77;;;8.50;99.90;;;;;;5114891;28;20451;-55
2023/01/03 05:54:30;;;;;;;4.37;1.73;;;8.40;99.90;;;;;;5112750;28;20478;-55
2023/01/03 05:56:57;;;;;;;1.93;1.83;;;8.40;99.90;;;;;;5115009;28;20442;-55
2023/01/03 05:59:25;;;;;;;2.37;2.27;;;8.50;99.90;;;;;;5115061;28;20810;-55
2023/01/03 06:01:54;;;;;;;1.97;1.87;;;8.40;99.90;;;;;;5113066;28;20525;-55
2023/01/03 06:04:21;;;;;;;2.83;2.63;;;8.50;99.90;;;;;;5114732;28;20951;-54
2023/01/03 06:06:48;;;;;;;2.20;2.10;;;8.40;99.90;;;;;;5114754;28;20517;-55
2023/01/03 06:09:15;;;;;;;2.63;2.43;;;8.50;99.90;;;;;;5112801;28;20486;-55
2023/01/03 06:11:43;;;;;;;2.27;1.90;;;8.40;99.90;;;;;;5112978;28;20443;-55
2023/01/03 06:14:10;;;;;;;2.13;1.93;;;8.40;99.90;;;;;;5114649;28;20447;-54
2023/01/03 06:19:23;;;;;;;2.30;1.87;;;8.40;99.90;;;;;;5114605;28;20491;-54
2023/01/03 06:21:50;;;;;;;2.10;2.00;;;8.30;99.90;;;;;;5114078;28;20483;-54
2023/01/03 06:24:17;;;;;;;3.30;2.00;;;8.10;99.90;;;;;;5112513;28;20521;-55
2023/01/03 06:26:45;;;;;;;3.67;2.47;;;8.00;99.90;;;;;;5114083;28;20442;-54
2023/01/03 06:29:12;;;;;;;6.10;2.17;;;8.00;99.90;;;;;;5111879;28;20534;-54
2023/01/03 06:31:40;;;;;;;3.83;1.80;;;7.90;99.90;;;;;;5112574;28;20462;-55
2023/01/03 06:34:07;;;;;;;1.97;1.87;;;7.90;99.90;;;;;;5114303;28;20815;-55
2023/01/03 06:36:36;;;;;;;4.20;2.23;;;8.00;99.90;;;;;;5114283;28;20501;-55
2023/01/03 06:39:04;;;;;;;2.50;2.20;;;8.00;99.90;;;;;;5112539;28;20461;-54
2023/01/03 06:41:31;;;;;;;2.33;2.13;;;8.00;99.90;;;;;;5113961;28;20462;-55
2023/01/03 06:43:58;;;;;;;2.97;2.67;;;8.10;99.90;;;;;;5113911;28;20481;-55
2023/01/03 06:54:59;;;;;;;2.60;2.40;;;7.90;99.90;;;;;;5101557;28;20478;-55
2023/01/03 06:57:26;;;;;;;2.20;1.97;;;7.90;99.90;;;;;;5113398;28;20937;-55
2023/01/03 06:59:53;;;;;;;8.13;2.50;;;7.80;99.90;;;;;;5111956;28;20447;-55
2023/01/03 07:02:20;;;;;;;5.37;2.43;;;7.90;99.90;;;;;;5113688;28;20447;-55
2023/01/03 07:04:47;;;;;;;3.63;2.67;;;7.80;99.90;;;;;;5113520;28;20537;-55
2023/01/03 07:07:16;;;;;;;4.20;2.50;;;7.80;99.90;;;;;;5111666;28;20454;-55
2023/01/03 07:09:43;;;;;;;2.53;2.33;;;7.70;99.90;;;;;;5113422;28;20465;-55
2023/01/03 07:14:51;;;;;;;3.33;3.03;;;7.70;99.90;;;;;;5110482;28;20551;-55
2023/01/03 07:17:22;;;;;;;3.43;3.20;;;7.80;99.90;;;;;;5111791;28;20538;-54
2023/01/03 07:19:49;;;;;;;5.23;3.90;;;7.70;99.90;;;;;;5113296;28;20475;-55
2023/01/03 07:22:18;;;;;;;3.30;2.77;;;7.70;99.90;;;;;;5111136;28;20446;-55
2023/01/03 07:24:45;;;;;;;3.90;2.87;;;7.70;99.90;;;;;;5113390;28;20454;-55
2023/01/03 07:27:13;;;;;;;7.20;4.30;;;7.70;99.90;;;;;;5112873;28;20446;-55
2023/01/03 07:29:40;;;;;;;8.87;5.23;;;7.70;99.90;;;;;;5111356;28;20467;-55
2023/01/03 07:32:07;;;;;;;6.90;5.77;;;7.70;99.90;;;;;;5113425;28;20452;-55
2023/01/03 07:34:34;;;;;;;5.03;4.63;;;7.70;99.90;;;;;;5109284;28;20835;-55
2023/01/03 07:37:02;;;;;;;5.60;5.10;;;7.70;99.90;;;;;;5113105;28;20529;-55
2023/01/03 07:39:30;;;;;;;4.43;4.07;;;7.70;99.90;;;;;;5113290;28;20450;-55
2023/01/03 07:44:41;;;;;;;4.80;3.30;;;7.70;99.90;;;;;;5111462;28;20531;-55
2023/01/03 07:47:08;;;;;;;4.27;3.87;;;7.70;99.90;;;;;;5113388;28;20449;-55
2023/01/03 07:49:36;;;;;;;2.60;2.40;;;7.80;99.90;;;;;;5111008;28;20470;-55
2023/01/03 07:52:03;;;;;;;2.77;2.57;;;7.80;99.90;;;;;;5108942;28;20932;-55
2023/01/03 07:54:31;;;;;;;3.53;2.63;;;7.80;99.90;;;;;;5112867;28;20885;-55
2023/01/03 07:56:58;;;;;;;5.03;3.53;;;7.70;99.90;;;;;;5113097;28;20557;-55
2023/01/03 07:59:25;;;;;;;3.30;2.90;;;7.70;99.90;;;;;;5110998;28;20446;-55
2023/01/03 08:01:53;;;;;;;2.93;2.73;;;7.80;99.90;;;;;;5112987;28;20916;-55
2023/01/03 08:04:20;;;;;;;3.37;3.17;;;8.00;99.90;;;;;;5112725;28;20546;-55
2023/01/03 08:06:47;;;;;;;3.90;3.60;;;8.00;99.90;;;;;;5111038;28;20801;-55
2023/01/03 08:14:41;;;;;;;3.43;3.13;;;8.30;99.90;;;;;;5110833;28;20414;-55
2023/01/03 08:17:08;;;;;;;3.60;3.30;;;8.40;99.90;;;;;;5112730;28;20537;-56
2023/01/03 08:19:35;;;;;;;5.13;3.00;;;8.50;99.90;;;;;;5112566;28;20471;-56
2023/01/03 08:22:03;;;;;;;3.47;3.07;;;8.60;99.90;;;;;;5110591;28;20943;-56
2023/01/03 08:24:30;;;;;;;5.27;3.23;;;8.50;99.90;;;;;;5112193;28;20932;-55
2023/01/03 08:26:58;;;;;;;4.77;3.37;;;8.50;99.90;;;;;;5112825;28;20808;-55
2023/01/03 08:29:25;;;;;;;5.63;3.57;;;8.50;99.90;;;;;;5110745;28;20450;-56
2023/01/03 08:31:56;;;;;;;3.23;2.73;;;8.60;99.90;;;;;;5112643;28;20453;-56
2023/01/03 08:34:25;;;;;;;3.73;3.40;;;8.60;99.90;;;;;;5112460;28;20430;-55
2023/01/03 08:36:59;;;;;;;3.77;3.47;;;8.70;99.90;;;;;;5110854;28;20482;-56
2023/01/03 08:39:42;;;;;;;6.20;3.90;;;8.80;99.90;;;;;;5112202;28;20427;-55
2023/01/03 08:42:13;;;;;;;6.90;5.27;;;8.80;99.90;;;;;;5109788;28;20433;-57
2023/01/03 08:44:43;;;;;;;4.43;4.03;;;8.80;99.90;;;;;;5110300;28;20481;-56
2023/01/03 08:47:11;;;;;;;5.30;3.50;;;8.80;99.90;;;;;;5112689;28;20447;-56
2023/01/03 08:49:44;;;;;;;3.83;2.87;;;8.80;99.90;;;;;;5112254;28;20828;-56
2023/01/03 08:52:12;;;;;;;3.73;3.37;;;8.80;99.90;;;;;;5112571;28;20442;-56
2023/01/03 08:54:39;;;;;;;4.97;4.00;;;8.90;99.90;;;;;;5116255;28;20442;-56
2023/01/03 08:57:06;;;;;;;6.73;3.20;;;8.90;99.90;;;;;;5114280;28;20793;-56
2023/01/03 08:59:35;;;;;;;7.13;3.90;;;8.80;99.90;;;;;;5113499;28;20454;-55
2023/01/03 09:02:02;;;;;;;3.73;3.33;;;8.90;99.90;;;;;;5116073;28;20449;-55
2023/01/03 09:04:29;;;;;;;3.63;3.33;;;8.90;99.90;;;;;;5115788;28;20442;-55
2023/01/03 09:06:56;;;;;;;4.10;3.17;;;8.90;99.90;;;;;;5113616;28;20454;-55
2023/01/03 09:09:23;;;;;;;4.30;3.30;;;9.00;99.90;;;;;;5115506;28;20480;-56
2023/01/03 09:11:51;;;;;;;5.17;4.07;;;9.20;99.90;;;;;;5115937;28;20442;-56
2023/01/03 09:14:18;;;;;;;3.83;3.43;;;9.20;99.90;;;;;;5102660;28;20836;-57
2023/01/03 09:16:46;;;;;;;6.00;3.60;;;9.30;99.90;;;;;;5094981;28;20486;-56
2023/01/03 09:19:13;;;;;;;4.93;3.50;;;9.30;99.90;;;;;;5095341;28;20443;-57
2023/01/03 09:21:40;;;;;;;4.57;3.43;;;9.30;99.90;;;;;;5093816;28;20953;-58
2023/01/03 09:24:08;;;;;;;3.60;3.03;;;9.30;99.90;;;;;;5094317;28;20538;-58
2023/01/03 09:26:35;;;;;;;4.67;4.10;;;9.30;99.90;;;;;;5094413;28;20440;-58
2023/01/03 09:29:03;;;;;;;4.73;3.87;;;9.30;99.90;;;;;;5092773;28;20450;-59
2023/01/03 09:31:33;;;;;;;4.20;3.53;;;9.40;99.90;;;;;;5093597;28;20561;-60
2023/01/03 09:34:04;;;;;;;5.50;3.30;;;9.40;99.90;;;;;;5094888;28;20499;-59
2023/01/03 09:36:31;;;;;;;6.50;3.97;;;9.50;99.90;;;;;;5095141;28;20478;-60
2023/01/03 09:38:58;;;;;;;5.40;3.43;;;9.50;99.90;;;;;;5114483;28;20932;-60
2023/01/03 09:41:27;;;;;;;3.83;3.43;;;9.60;99.90;;;;;;5114604;28;20470;-55
2023/01/03 09:43:59;;;;;;;5.40;4.23;;;9.60;99.90;;;;;;5112433;28;20813;-58
2023/01/03 09:46:28;;;;;;;4.50;3.60;;;9.70;99.90;;;;;;5115196;28;20429;-59
2023/01/03 09:48:56;;;;;;;4.20;3.37;;;9.70;99.90;;;;;;5115291;28;20481;-60
2023/01/03 10:05:50;;;;;;;7.97;3.83;;;9.90;99.90;;;;;;5091390;28;20411;-55
2023/01/03 10:08:31;;;;;;;7.20;4.57;;;10.20;99.90;;;;;;5093904;28;20950;-56
2023/01/03 10:11:06;;;;;;;3.43;2.80;;;10.10;99.90;;;;;;5093869;28;20464;-52
2023/01/03 10:13:47;;;;;;;6.50;3.80;;;10.20;99.90;;;;;;5094173;28;20929;-56
2023/01/03 10:16:20;;;;;;;3.80;3.00;;;10.10;99.90;;;;;;5114415;28;20470;-54
2023/01/03 10:19:03;;;;;;;6.40;3.40;;;10.10;99.90;;;;;;5112865;28;20797;-55
2023/01/03 10:21:41;;;;;;;4.17;3.33;;;10.30;99.90;;;;;;5114171;28;20462;-57
2023/01/03 10:24:18;;;;;;;8.80;4.00;;;10.30;99.90;;;;;;5114059;28;20458;-54
2023/01/03 10:26:45;;;;;;;6.50;3.80;;;10.20;99.90;;;;;;5112515;28;20779;-51
2023/01/03 10:29:15;;;;;;;3.70;3.40;;;10.30;99.90;;;;;;5112508;28;20522;-58
2023/01/03 10:32:07;;;;;;;3.50;3.10;;;10.30;99.90;;;;;;5113995;28;20537;-55
2023/01/03 10:34:34;;;;;;;3.50;3.20;;;10.20;99.90;;;;;;5110260;28;20890;-51
2023/01/03 10:37:17;;;;;;;3.63;3.33;;;10.20;99.90;;;;;;5113256;28;20500;-51
2023/01/03 10:39:46;;;;;;;5.37;4.27;;;10.30;99.90;;;;;;5113255;28;20467;-51
2023/01/03 10:42:20;;;;;;;6.10;4.10;;;10.40;99.90;;;;;;5111598;28;20448;-50
2023/01/03 10:45:00;;;;;;;5.00;4.00;;;10.80;99.90;;;;;;5100391;28;20483;-49
2023/01/03 10:47:27;;;;;;;9.23;4.60;;;11.20;99.90;;;;;;5093274;28;20967;-51
2023/01/03 10:49:59;;;;;;;7.90;4.30;;;11.90;99.90;;;;;;5091147;28;20495;-49
2023/01/03 10:52:31;;;;;;;4.80;3.97;;;12.80;99.90;;;;;;5093327;28;20424;-52
2023/01/03 10:55:03;;;;;;;3.97;3.63;;;13.70;99.90;;;;;;5092988;28;20442;-51
2023/01/03 10:57:43;;;;;;;3.87;3.50;;;15.20;99.90;;;;;;5091192;28;20479;-53
2023/01/03 11:00:32;;;;;;;4.50;3.43;;;16.20;99.90;;;;;;5092646;28;20935;-51
2023/01/03 11:03:11;;;;;;;5.93;3.50;;;16.60;99.90;;;;;;5092701;28;20424;-52
2023/01/03 11:05:39;;;;;;;4.17;3.80;;;17.10;99.90;;;;;;5092951;28;20774;-55
2023/01/03 11:08:16;;;;;;;4.73;4.23;;;17.30;99.90;;;;;;5092870;28;20870;-53
2023/01/03 11:10:52;;;;;;;4.33;3.60;;;;;;;;;;5091104;28;20459;-49
2023/01/03 11:13:33;;;;;;;3.27;2.97;;;18.00;99.90;;;;;;5093289;28;20931;-55
2023/01/03 11:16:03;;;;;;;5.33;3.97;;;17.40;99.90;;;;;;5113261;28;20470;-55
2023/01/03 11:18:31;;;;;;;3.20;2.90;;;17.20;99.90;;;;;;5111499;28;20438;-52
2023/01/03 11:21:11;;;;;;;2.93;2.63;;;17.60;99.90;;;;;;5112882;28;20464;-53
2023/01/03 11:24:08;;;;;;;4.60;3.10;;;18.00;99.90;;;;;;5112755;28;20422;-55
2023/01/03 11:26:44;;;;;;;5.30;3.83;;;18.30;99.80;;;;;;5111102;28;20422;-53
2023/01/03 11:29:36;;;;;;;5.23;3.20;;;17.50;99.90;;;;;;5113427;28;20441;-55
2023/01/03 11:32:16;;;;;;;2.93;2.73;;;18.00;99.90;;;;;;5110830;28;20443;-51
2023/01/03 11:35:12;;;;;;;2.80;2.60;;;18.20;98.90;;;;;;5111632;28;20423;-54
2023/01/03 11:37:49;;;;;;;3.63;3.13;;;17.90;99.00;;;;;;5104718;28;20902;-52
2023/01/03 11:40:25;;;;;;;5.53;3.30;;;18.30;99.00;;;;;;5111063;28;20461;-51
2023/01/03 11:43:05;;;;;;;7.60;3.90;;;17.20;99.50;;;;;;5112431;28;20438;-51
2023/01/03 11:45:43;;;;;;;5.20;3.43;;;16.50;99.40;;;;;;5111270;28;20982;-51
2023/01/03 11:48:45;;;;;;;3.47;3.17;;;17.10;99.90;;;;;;5108813;28;20441;-51
2023/01/03 11:51:17;;;;;;;8.03;3.37;;;16.50;99.80;;;;;;5110803;28;20498;-50
2023/01/03 11:53:59;;;;;;;5.27;2.90;;;15.70;99.90;;;;;;5111946;28;20433;-50
2023/01/03 11:56:28;;;;;;;5.63;2.57;;;;;;;;;;5109588;28;20509;-55
2023/01/03 11:59:29;;;;;;;10.17;2.57;;;15.60;99.90;;;;;;5111906;28;20973;-55
2023/01/03 12:02:34;;;;;;;4.07;2.50;;;15.00;99.90;;;;;;5112506;28;20446;-53
2023/01/03 12:05:18;;;;;;;5.50;3.40;;;14.60;99.90;;;;;;5112482;28;20424;-53
2023/01/03 12:08:08;;;;;;;4.70;2.50;;;14.10;99.90;;;;;;5112617;28;20442;-54
2023/01/03 12:10:43;;;;;;;3.97;3.20;;;13.60;99.90;;;;;;5111192;28;20507;-53
2023/01/03 12:13:19;;;;;;;6.17;3.33;;;13.40;99.90;;;;;;5112571;28;20423;-53
2023/01/03 12:15:51;;;;;;;3.80;3.47;;;13.40;99.90;;;;;;5111429;28;20533;-50
2023/01/03 12:18:25;;;;;;;3.77;2.80;;;13.30;99.90;;;;;;5110289;28;20464;-50
2023/01/03 12:20:56;;;;;;;4.23;2.93;;;13.20;99.90;;;;;;5112393;28;20451;-50
2023/01/03 12:23:34;;;;;;;4.30;3.10;;;13.10;99.90;;;;;;5112306;28;20419;-51
2023/01/03 12:26:05;;;;;;;3.43;2.70;;;13.00;99.90;;;;;;5110543;28;20432;-48
2023/01/03 12:28:38;;;;;;;2.63;2.43;;;12.90;99.90;;;;;;5115851;28;20425;-49
2023/01/03 12:31:18;;;;;;;4.77;3.37;;;12.90;99.90;;;;;;5104672;28;20550;-48
2023/01/03 12:33:52;;;;;;;4.07;3.07;;;12.80;99.90;;;;;;5102145;28;20442;-53
2023/01/03 12:36:29;;;;;;;5.27;3.20;;;12.70;99.90;;;;;;5116142;28;20472;-50
2023/01/03 12:39:07;;;;;;;7.63;3.47;;;12.80;99.90;;;;;;5116238;28;20454;-50
2023/01/03 12:41:40;;;;;;;3.67;2.87;;;12.80;99.90;;;;;;5114334;28;20548;-50
2023/01/03 12:44:15;;;;;;;3.60;2.43;;;12.70;99.90;;;;;;5116180;28;20478;-50
2023/01/03 12:46:45;;;;;;;3.80;3.20;;;;;;;;;;5115575;28;20474;-53
2023/01/03 12:49:16;;;;;;;4.60;3.50;;;12.10;99.90;;;;;;5115830;28;20493;-51
2023/01/03 12:51:44;;;;;;;3.67;3.37;;;12.20;99.90;;;;;;5116063;28;20898;-50
2023/01/03 12:54:26;;;;;;;8.73;4.20;;;12.00;99.90;;;;;;5113553;28;20446;-49
2023/01/03 12:57:07;;;;;;;5.00;2.90;;;11.90;99.90;;;;;;5115627;28;20473;-51
2023/01/03 13:00:11;;;;;;;7.13;3.30;;;12.10;99.90;;;;;;5115697;28;20484;-51
2023/01/03 13:02:47;;;;;;;8.47;3.20;;;12.20;99.90;;;;;;5071730;28;20477;-52
2023/01/03 13:05:20;;;;;;;4.20;3.57;;;12.30;99.90;;;;;;5115704;28;20529;-54
2023/01/03 13:07:53;;;;;;;3.57;3.27;;;12.40;99.90;;;;;;5115503;28;20461;-52
2023/01/03 13:10:27;;;;;;;5.83;3.53;;;12.40;99.90;;;;;;5113969;28;20554;-55
2023/01/03 13:12:54;;;;;;;5.00;3.10;;;12.40;99.90;;;;;;5115804;28;20429;-51
2023/01/03 13:15:28;;;;;;;3.57;3.17;;;12.50;99.90;;;;;;5115485;28;20449;-51
2023/01/03 13:18:30;;;;;;;6.80;3.00;;;12.60;99.90;;;;;;5113401;28;20459;-50
2023/01/03 13:21:00;;;;;;;3.30;3.00;;;12.70;99.90;;;;;;5115329;28;20810;-49
2023/01/03 13:23:35;;;;;;;4.37;3.17;;;12.80;99.90;;;;;;5114613;28;20450;-49
2023/01/03 13:26:21;;;;;;;3.30;3.00;;;12.90;99.90;;;;;;5111161;28;20434;-49
2023/01/03 13:28:50;;;;;;;4.00;2.53;;;13.30;99.90;;;;;;5113639;28;20999;-51
2023/01/03 13:32:02;;;;;;;3.33;3.03;;;13.30;99.90;;;;;;5113079;28;20504;-50
2023/01/03 13:34:35;;;;;;;2.70;2.50;;;13.10;99.90;;;;;;5114617;28;20443;-50
2023/01/03 13:37:27;;;;;;;5.37;3.20;;;12.70;99.90;;;;;;5114132;28;20479;-51
2023/01/03 13:40:24;;;;;;;9.73;3.40;;;12.40;99.90;;;;;;5113499;28;20810;-49
2023/01/03 13:43:03;;;;;;;4.27;3.53;;;12.50;99.90;;;;;;5114353;28;20434;-55
2023/01/03 13:45:56;;;;;;;3.47;3.10;;;12.40;99.90;;;;;;5113475;28;20474;-56
2023/01/03 13:48:37;;;;;;;3.73;3.20;;;12.10;99.90;;;;;;5115217;28;20518;-55
2023/01/03 13:51:25;;;;;;;4.17;3.73;;;11.90;99.90;;;;;;5114570;28;20553;-57
2023/01/03 13:53:59;;;;;;;8.70;2.83;;;11.90;99.90;;;;;;5112746;28;20437;-56
2023/01/03 13:56:28;;;;;;;3.30;3.00;;;11.90;99.90;;;;;;5113878;28;20890;-55
2023/01/03 13:59:02;;;;;;;3.40;2.70;;;11.90;99.90;;;;;;5114529;28;20771;-56
2023/01/03 14:01:55;;;;;;;7.70;3.23;;;11.90;99.90;;;;;;5112451;28;20541;-57
2023/01/03 14:05:02;;;;;;;3.30;2.90;;;11.90;99.90;;;;;;5112244;28;20426;-57
2023/01/03 14:07:57;;;;;;;3.23;2.30;;;11.90;99.90;;;;;;5110215;28;21140;-54
2023/01/03 14:11:13;;;;;;;2.73;2.47;;;11.80;99.90;;;;;;5090563;28;20554;-54
2023/01/03 14:13:44;;;;;;;4.57;2.70;;;11.70;99.90;;;;;;5096356;28;20446;-54
2023/01/03 14:16:41;;;;;;;4.73;2.90;;;11.70;99.90;;;;;;5112286;28;20832;-54
2023/01/03 14:19:18;;;;;;;3.83;2.37;;;11.70;99.90;;;;;;5112555;28;20455;-54
2023/01/03 14:21:47;;;;;;;2.13;1.80;;;11.70;99.90;;;;;;5113120;28;20917;-54
2023/01/03 14:24:23;;;;;;;4.50;2.43;;;11.80;99.90;;;;;;5110996;28;20447;-54
2023/01/03 14:26:50;;;;;;;2.97;2.20;;;11.80;99.90;;;;;;5112516;28;21015;-54
2023/01/03 14:29:20;;;;;;;2.30;2.10;;;11.70;99.90;;;;;;5112193;28;20944;-54